createdAt,value
2022-10-16T00:01:38.950Z,3.55
2022-10-16T00:04:05.414Z,3.67
2022-10-16T00:06:32.584Z,3.30
2022-10-16T00:08:58.961Z,4.90
2022-10-16T00:11:26.986Z,3.58
2022-10-16T00:13:55.806Z,3.17
2022-10-16T00:16:22.090Z,3.50
2022-10-16T00:18:48.729Z,3.72
2022-10-16T00:21:16.809Z,4.03
2022-10-16T00:23:43.500Z,3.40
2022-10-16T00:26:11.667Z,4.07
2022-10-16T00:28:38.027Z,3.83
2022-10-16T00:31:09.074Z,3.75
2022-10-16T00:33:35.844Z,3.85
2022-10-16T00:36:02.506Z,3.90
2022-10-16T00:38:28.786Z,3.88
2022-10-16T00:40:55.256Z,4.05
2022-10-16T00:43:35.822Z,3.90
2022-10-16T00:46:03.416Z,3.92
2022-10-16T00:48:29.934Z,3.80
2022-10-16T00:50:57.114Z,4.72
2022-10-16T00:53:24.334Z,4.25
2022-10-16T00:55:50.626Z,4.40
2022-10-16T00:58:16.892Z,4.97
2022-10-16T01:00:43.552Z,5.07
2022-10-16T01:03:26.927Z,4.90
2022-10-16T01:05:59.978Z,4.57
2022-10-16T01:08:30.166Z,4.53
2022-10-16T01:10:58.828Z,5.13
2022-10-16T01:13:28.262Z,5.50
2022-10-16T01:16:07.532Z,4.85
2022-10-16T01:18:41.881Z,5.20
2022-10-16T01:21:14.464Z,5.38
2022-10-16T01:23:58.319Z,4.65
2022-10-16T01:26:31.513Z,5.35
2022-10-16T01:29:03.998Z,6.00
2022-10-16T01:31:32.642Z,5.45
2022-10-16T01:34:15.265Z,5.63
2022-10-16T01:36:46.256Z,5.55
2022-10-16T01:39:12.897Z,5.60
2022-10-16T01:41:42.449Z,5.57
2022-10-16T01:44:11.700Z,5.72
2022-10-16T01:46:40.262Z,6.32
2022-10-16T01:49:07.332Z,5.78
2022-10-16T01:51:34.077Z,5.60
2022-10-16T01:54:02.148Z,5.60
2022-10-16T01:56:29.472Z,6.38
2022-10-16T01:59:02.136Z,6.43
2022-10-16T02:01:31.653Z,6.47
2022-10-16T02:03:59.830Z,7.15
2022-10-16T02:06:26.701Z,8.23
2022-10-16T02:08:54.105Z,7.38
2022-10-16T02:11:20.383Z,7.43
2022-10-16T02:13:53.725Z,8.88
2022-10-16T02:16:20.058Z,8.50
2022-10-16T02:18:46.442Z,8.57
2022-10-16T02:21:26.896Z,8.23
2022-10-16T02:24:03.263Z,8.60
2022-10-16T02:26:32.158Z,8.40
2022-10-16T02:29:01.610Z,9.25
2022-10-16T02:31:28.927Z,8.30
2022-10-16T02:33:57.280Z,8.63
2022-10-16T02:36:23.862Z,9.40
2022-10-16T02:38:50.219Z,8.93
2022-10-16T02:41:16.687Z,8.82
2022-10-16T02:43:42.941Z,8.52
2022-10-16T02:46:09.222Z,9.07
2022-10-16T02:48:36.735Z,9.50
2022-10-16T02:51:03.014Z,10.88
2022-10-16T02:53:29.285Z,11.52
2022-10-16T02:55:55.627Z,12.52
2022-10-16T02:58:22.462Z,12.73
2022-10-16T03:00:48.987Z,12.25
2022-10-16T03:03:15.274Z,13.40
2022-10-16T03:05:41.637Z,12.32
2022-10-16T03:08:07.888Z,12.25
2022-10-16T03:10:34.173Z,12.90
2022-10-16T03:13:00.592Z,13.50
2022-10-16T03:15:26.952Z,12.32
2022-10-16T03:17:53.258Z,13.45
2022-10-16T03:20:19.738Z,13.30
2022-10-16T03:22:45.994Z,13.85
2022-10-16T03:25:12.294Z,12.85
2022-10-16T03:27:38.585Z,13.20
2022-10-16T03:30:05.053Z,12.10
2022-10-16T03:32:31.560Z,9.50
2022-10-16T03:34:57.970Z,10.18
2022-10-16T03:37:24.641Z,10.00
2022-10-16T03:39:51.226Z,9.35
2022-10-16T03:42:17.606Z,9.52
2022-10-16T03:44:43.883Z,10.88
2022-10-16T03:47:10.187Z,10.63
2022-10-16T03:49:36.477Z,10.18
2022-10-16T03:52:02.838Z,10.23
2022-10-16T03:54:29.139Z,12.13
2022-10-16T03:56:55.434Z,11.00
2022-10-16T03:59:21.725Z,9.98
2022-10-16T04:01:47.985Z,9.77
2022-10-16T04:04:14.263Z,9.75
2022-10-16T04:06:40.555Z,9.52
2022-10-16T04:09:06.918Z,9.10
2022-10-16T04:11:33.217Z,10.02
2022-10-16T04:13:59.551Z,8.90
2022-10-16T04:16:25.829Z,9.45
2022-10-16T04:18:52.107Z,9.73
2022-10-16T04:21:18.380Z,9.05
2022-10-16T04:23:44.746Z,8.52
2022-10-16T04:26:11.588Z,8.73
2022-10-16T04:28:38.138Z,8.63
2022-10-16T04:31:05.034Z,8.13
2022-10-16T04:33:31.320Z,7.63
2022-10-16T04:35:58.359Z,8.02
2022-10-16T04:38:24.818Z,8.15
2022-10-16T04:40:51.387Z,8.90
2022-10-16T04:43:17.730Z,8.70
2022-10-16T04:45:44.053Z,9.23
2022-10-16T04:48:10.369Z,9.52
2022-10-16T04:50:36.681Z,9.07
2022-10-16T04:53:06.515Z,10.25
2022-10-16T04:55:32.855Z,10.13
2022-10-16T04:57:59.152Z,10.68
2022-10-16T05:00:25.421Z,10.88
2022-10-16T05:02:52.119Z,10.80
2022-10-16T05:05:20.274Z,9.80
2022-10-16T05:07:47.035Z,10.65
2022-10-16T05:10:13.377Z,10.73
2022-10-16T05:12:39.686Z,10.82
2022-10-16T05:15:06.378Z,10.63
2022-10-16T05:17:32.657Z,10.40
2022-10-16T05:19:58.916Z,10.45
2022-10-16T05:22:25.197Z,11.70
2022-10-16T05:24:51.619Z,12.13
2022-10-16T05:27:20.853Z,12.00
2022-10-16T05:29:47.826Z,13.80
2022-10-16T05:32:14.641Z,13.55
2022-10-16T05:34:40.937Z,14.13
2022-10-16T05:37:07.285Z,13.75
2022-10-16T05:39:33.602Z,14.57
2022-10-16T05:41:59.856Z,14.63
2022-10-16T05:44:26.273Z,13.90
2022-10-16T05:46:52.611Z,14.23
2022-10-16T05:49:18.934Z,14.57
2022-10-16T05:51:45.237Z,14.43
2022-10-16T05:54:11.518Z,15.00
2022-10-16T05:56:37.813Z,15.15
2022-10-16T05:59:04.877Z,15.18
2022-10-16T06:01:31.899Z,14.65
2022-10-16T06:03:58.285Z,14.98
2022-10-16T06:06:26.728Z,15.80
2022-10-16T06:08:54.142Z,14.68
2022-10-16T06:11:21.981Z,14.18
2022-10-16T06:13:52.300Z,14.48
2022-10-16T06:16:18.666Z,14.25
2022-10-16T06:18:45.143Z,14.57
2022-10-16T06:21:18.830Z,14.52
2022-10-16T06:26:19.500Z,14.38
2022-10-16T06:28:45.820Z,14.40
2022-10-16T06:31:12.281Z,14.65
2022-10-16T06:33:39.128Z,13.15
2022-10-16T06:36:10.014Z,12.20
2022-10-16T06:38:36.467Z,12.50
2022-10-16T06:41:03.168Z,14.55
2022-10-16T06:43:33.008Z,15.02
2022-10-16T06:45:59.958Z,11.15
2022-10-16T06:48:26.584Z,9.10
2022-10-16T06:50:59.170Z,9.00
2022-10-16T06:53:25.728Z,10.45
2022-10-16T06:55:52.047Z,10.40
2022-10-16T06:58:18.438Z,9.20
2022-10-16T07:00:44.786Z,8.30
2022-10-16T07:03:11.067Z,8.65
2022-10-16T07:05:41.293Z,9.73
2022-10-16T07:08:07.868Z,9.15
2022-10-16T07:10:34.629Z,9.48
2022-10-16T07:13:00.992Z,8.90
2022-10-16T07:15:27.585Z,8.88
2022-10-16T07:17:54.046Z,8.27
2022-10-16T07:20:20.508Z,10.32
2022-10-16T07:22:47.047Z,12.02
2022-10-16T07:25:13.402Z,12.45
2022-10-16T07:27:39.733Z,11.07
2022-10-16T07:30:08.367Z,10.98
2022-10-16T07:32:35.552Z,8.63
2022-10-16T07:35:01.871Z,7.75
2022-10-16T07:37:28.727Z,8.10
2022-10-16T07:39:55.132Z,8.27
2022-10-16T07:42:21.641Z,6.68
2022-10-16T07:44:47.953Z,5.95
2022-10-16T07:47:14.220Z,6.10
2022-10-16T07:49:40.786Z,6.05
2022-10-16T07:52:07.064Z,5.65
2022-10-16T07:54:33.338Z,5.53
2022-10-16T07:56:59.613Z,5.30
2022-10-16T07:59:26.142Z,5.13
2022-10-16T08:01:52.483Z,4.88
2022-10-16T08:04:18.829Z,4.53
2022-10-16T08:06:45.129Z,4.78
2022-10-16T08:09:11.431Z,4.80
2022-10-16T08:11:37.839Z,4.40
2022-10-16T08:14:04.117Z,4.05
2022-10-16T08:16:30.406Z,4.30
2022-10-16T08:18:56.673Z,4.20
2022-10-16T08:21:26.721Z,4.53
2022-10-16T08:23:57.117Z,4.30
2022-10-16T08:26:24.558Z,4.10
2022-10-16T08:28:51.803Z,4.28
2022-10-16T08:31:18.211Z,4.10
2022-10-16T08:33:47.402Z,4.55
2022-10-16T08:36:14.224Z,4.30
2022-10-16T08:38:40.622Z,5.13
2022-10-16T08:41:20.969Z,4.97
2022-10-16T08:44:01.398Z,5.63
2022-10-16T08:46:39.853Z,5.30
2022-10-16T08:49:10.389Z,5.40
2022-10-16T08:51:40.276Z,5.15
2022-10-16T08:54:12.711Z,4.38
2022-10-16T08:56:39.034Z,4.50
2022-10-16T08:59:07.585Z,4.13
2022-10-16T09:01:39.113Z,4.15
2022-10-16T09:04:11.484Z,3.80
2022-10-16T09:06:43.228Z,3.38
2022-10-16T09:09:25.861Z,3.40
2022-10-16T09:11:55.213Z,3.63
2022-10-16T09:14:21.483Z,3.80
2022-10-16T09:16:53.147Z,4.00
2022-10-16T09:19:23.996Z,3.63
2022-10-16T09:21:50.482Z,3.20
2022-10-16T09:24:18.261Z,3.13
2022-10-16T09:26:45.022Z,3.10
2022-10-16T09:29:18.178Z,3.63
2022-10-16T09:31:44.457Z,2.93
2022-10-16T09:34:22.586Z,3.40
2022-10-16T09:36:48.964Z,3.13
2022-10-16T09:39:15.274Z,3.85
2022-10-16T09:41:43.089Z,3.67
2022-10-16T09:44:24.876Z,3.75
2022-10-16T09:47:01.315Z,3.47
2022-10-16T09:49:27.821Z,3.42
2022-10-16T09:52:23.804Z,3.60
2022-10-16T09:54:51.070Z,3.30
2022-10-16T09:57:17.378Z,3.30
2022-10-16T09:59:51.127Z,4.03
2022-10-16T10:02:18.534Z,3.72
2022-10-16T10:04:55.461Z,3.15
2022-10-16T10:07:26.469Z,3.28
2022-10-16T10:09:53.314Z,2.90
2022-10-16T10:12:26.917Z,2.40
2022-10-16T10:17:21.295Z,2.13
2022-10-16T10:19:50.896Z,1.80
2022-10-16T10:22:31.149Z,2.03
2022-10-16T10:24:58.403Z,2.30
2022-10-16T10:27:29.565Z,2.17
2022-10-16T10:30:12.295Z,2.03
2022-10-16T10:32:53.986Z,2.80
2022-10-16T10:35:23.851Z,2.22
2022-10-16T10:37:56.278Z,1.70
2022-10-16T10:40:35.233Z,2.22
2022-10-16T10:43:20.390Z,1.67
2022-10-16T10:45:47.700Z,1.73
2022-10-16T10:48:20.984Z,1.55
2022-10-16T10:50:53.280Z,1.98
2022-10-16T10:53:28.856Z,1.85
2022-10-16T10:56:00.398Z,2.50
2022-10-16T10:58:38.946Z,1.83
2022-10-16T11:01:09.381Z,1.90
2022-10-16T11:03:47.885Z,1.92
2022-10-16T11:06:27.530Z,1.70
2022-10-16T11:08:56.434Z,1.88
2022-10-16T11:11:30.522Z,1.85
2022-10-16T11:14:23.357Z,1.63
2022-10-16T11:16:55.214Z,1.35
2022-10-16T11:19:28.442Z,1.65
2022-10-16T11:22:02.090Z,1.57
2022-10-16T11:24:44.024Z,1.60
2022-10-16T11:27:15.458Z,1.70
2022-10-16T11:29:47.754Z,1.80
2022-10-16T11:32:23.092Z,1.73
2022-10-16T11:34:51.522Z,1.98
2022-10-16T11:37:37.426Z,1.40
2022-10-16T11:40:17.599Z,1.60
2022-10-16T11:42:47.275Z,1.50
2022-10-16T11:45:36.995Z,1.70
2022-10-16T11:48:15.505Z,1.85
2022-10-16T11:50:49.592Z,1.83
2022-10-16T11:55:46.110Z,1.80
2022-10-16T11:58:27.344Z,1.75
2022-10-16T12:00:58.018Z,1.75
2022-10-16T12:03:41.542Z,1.77
2022-10-16T12:06:11.018Z,1.40
2022-10-16T12:08:37.821Z,1.60
2022-10-16T12:11:21.864Z,1.50
2022-10-16T12:13:49.198Z,1.83
2022-10-16T12:16:15.482Z,1.90
2022-10-16T12:18:43.119Z,1.60
2022-10-16T12:21:10.042Z,1.75
2022-10-16T12:23:47.541Z,1.83
2022-10-16T12:26:13.957Z,1.98
2022-10-16T12:28:41.594Z,1.77
2022-10-16T12:31:10.863Z,2.00
2022-10-16T12:33:38.964Z,1.60
2022-10-16T12:36:07.880Z,1.65
2022-10-16T12:38:38.800Z,1.70
2022-10-16T12:41:06.350Z,1.63
2022-10-16T12:43:32.732Z,1.75
2022-10-16T12:46:06.627Z,1.60
2022-10-16T12:48:48.182Z,1.60
2022-10-16T12:51:25.787Z,1.70
2022-10-16T12:54:02.302Z,2.00
2022-10-16T12:56:48.890Z,1.60
2022-10-16T12:59:30.463Z,1.80
2022-10-16T13:01:59.711Z,1.70
2022-10-16T13:04:55.495Z,1.90
2022-10-16T13:07:37.423Z,1.80
2022-10-16T13:10:03.792Z,1.60
2022-10-16T13:12:30.174Z,1.60
2022-10-16T13:15:05.580Z,2.00
2022-10-16T13:17:47.353Z,2.00
2022-10-16T13:20:19.436Z,1.52
2022-10-16T13:22:50.681Z,2.10
2022-10-16T13:25:40.436Z,1.80
2022-10-16T13:28:08.209Z,1.70
2022-10-16T13:30:38.976Z,1.83
2022-10-16T13:33:07.560Z,1.60
2022-10-16T13:35:35.415Z,1.70
2022-10-16T13:38:15.363Z,1.80
2022-10-16T13:40:52.169Z,1.50
2022-10-16T13:43:38.717Z,1.50
2022-10-16T13:46:12.884Z,1.83
2022-10-16T13:51:14.668Z,1.90
2022-10-16T13:53:41.681Z,1.80
2022-10-16T13:56:11.585Z,1.80
2022-10-16T13:58:37.901Z,1.58
2022-10-16T14:01:06.375Z,1.70
2022-10-16T14:03:33.354Z,1.70
2022-10-16T14:06:04.174Z,1.90
2022-10-16T14:08:31.628Z,1.65
2022-10-16T14:10:59.652Z,1.80
2022-10-16T14:13:29.285Z,1.60
2022-10-16T14:15:55.813Z,1.60
2022-10-16T14:18:26.355Z,1.50
2022-10-16T14:20:52.809Z,1.85
2022-10-16T14:23:19.123Z,1.98
2022-10-16T14:25:45.630Z,1.80
2022-10-16T14:28:15.065Z,1.80
2022-10-16T14:30:50.201Z,1.98
2022-10-16T14:33:21.996Z,1.80
2022-10-16T14:35:59.462Z,1.90
2022-10-16T14:38:25.805Z,1.73
2022-10-16T14:40:52.157Z,2.00
2022-10-16T14:43:26.885Z,1.52
2022-10-16T14:45:55.062Z,1.60
2022-10-16T14:48:21.688Z,1.48
2022-10-16T14:50:47.967Z,1.80
2022-10-16T14:53:14.291Z,1.77
2022-10-16T14:55:41.261Z,1.60
2022-10-16T14:58:11.914Z,1.73
2022-10-16T15:00:39.210Z,1.60
2022-10-16T15:03:05.548Z,1.75
2022-10-16T15:05:33.059Z,1.80
2022-10-16T15:07:59.441Z,2.10
2022-10-16T15:10:27.955Z,1.95
2022-10-16T15:12:54.406Z,1.90
2022-10-16T15:15:23.827Z,2.20
2022-10-16T15:17:54.155Z,1.80
2022-10-16T15:20:20.807Z,2.20
2022-10-16T15:22:47.109Z,2.17
2022-10-16T15:25:32.117Z,2.03
2022-10-16T15:27:58.770Z,2.03
2022-10-16T15:30:25.453Z,2.22
2022-10-16T15:32:51.741Z,2.20
2022-10-16T15:35:18.012Z,2.30
2022-10-16T15:37:44.362Z,2.60
2022-10-16T15:40:11.427Z,2.03
2022-10-16T15:42:37.734Z,2.40
2022-10-16T15:45:04.925Z,2.20
2022-10-16T15:47:31.198Z,2.20
2022-10-16T15:49:57.561Z,2.30
2022-10-16T15:52:24.238Z,2.20
2022-10-16T15:54:54.179Z,2.30
2022-10-16T15:57:21.290Z,2.40
2022-10-16T15:59:47.648Z,2.35
2022-10-16T16:02:14.042Z,2.30
2022-10-16T16:04:44.758Z,2.90
2022-10-16T16:07:11.527Z,2.42
2022-10-16T16:09:38.468Z,2.30
2022-10-16T16:12:04.794Z,2.85
2022-10-16T16:14:31.103Z,2.50
2022-10-16T16:16:58.089Z,2.80
2022-10-16T16:19:24.459Z,3.00
2022-10-16T16:21:50.793Z,2.63
2022-10-16T16:24:17.165Z,3.25
2022-10-16T16:26:44.378Z,3.08
2022-10-16T16:29:15.135Z,3.00
2022-10-16T16:31:41.973Z,3.28
2022-10-16T16:34:08.609Z,3.28
2022-10-16T16:36:35.505Z,3.50
2022-10-16T16:39:01.860Z,3.80
2022-10-16T16:41:29.076Z,3.70
2022-10-16T16:43:55.399Z,3.90
2022-10-16T16:46:22.076Z,3.80
2022-10-16T16:48:50.826Z,3.90
2022-10-16T16:51:20.165Z,3.78
2022-10-16T16:53:47.568Z,3.88
2022-10-16T16:56:14.087Z,4.35
2022-10-16T16:58:40.701Z,4.20
2022-10-16T17:01:22.739Z,4.13
2022-10-16T17:03:51.081Z,3.88
2022-10-16T17:06:20.704Z,4.15
2022-10-16T17:08:48.282Z,4.53
2022-10-16T17:11:15.587Z,4.60
2022-10-16T17:13:42.001Z,4.07
2022-10-16T17:16:08.357Z,4.40
2022-10-16T17:18:35.101Z,4.28
2022-10-16T17:21:05.637Z,4.28
2022-10-16T17:23:32.281Z,4.10
2022-10-16T17:26:03.329Z,4.75
2022-10-16T17:28:29.726Z,4.60
2022-10-16T17:30:56.384Z,4.30
2022-10-16T17:33:22.730Z,5.10
2022-10-16T17:35:49.007Z,6.45
2022-10-16T17:38:16.626Z,6.88
2022-10-16T17:40:43.653Z,7.95
2022-10-16T17:43:09.936Z,9.85
2022-10-16T17:45:36.862Z,10.23
2022-10-16T17:48:05.578Z,11.38
2022-10-16T17:50:31.886Z,11.77
2022-10-16T17:52:58.166Z,12.35
2022-10-16T17:55:27.096Z,10.10
2022-10-16T17:57:53.720Z,9.02
2022-10-16T18:00:20.175Z,7.85
2022-10-16T18:02:48.793Z,7.40
2022-10-16T18:05:15.173Z,6.88
2022-10-16T18:10:11.892Z,6.78
2022-10-16T18:12:38.675Z,8.10
2022-10-16T18:15:05.877Z,7.75
2022-10-16T18:17:37.526Z,7.85
2022-10-16T18:20:05.687Z,9.52
2022-10-16T18:22:38.598Z,10.63
2022-10-16T18:25:05.981Z,21.48
2022-10-16T18:27:32.986Z,20.98
2022-10-16T18:29:59.972Z,15.80
2022-10-16T18:32:27.249Z,15.18
2022-10-16T18:34:54.344Z,14.82
2022-10-16T18:37:21.564Z,14.60
2022-10-16T18:39:48.724Z,13.20
2022-10-16T18:42:16.034Z,14.73
2022-10-16T18:44:42.330Z,12.35
2022-10-16T18:47:08.718Z,15.07
2022-10-16T18:49:34.977Z,14.88
2022-10-16T18:52:03.131Z,13.57
2022-10-16T18:54:30.245Z,11.90
2022-10-16T18:56:56.575Z,10.80
2022-10-16T18:59:23.120Z,10.95
2022-10-16T19:01:50.050Z,12.18
2022-10-16T19:04:17.160Z,13.23
2022-10-16T19:06:44.867Z,13.15
2022-10-16T19:09:12.059Z,14.07
2022-10-16T19:11:41.641Z,13.25
2022-10-16T19:14:08.615Z,13.63
2022-10-16T19:16:35.554Z,12.35
2022-10-16T19:19:03.604Z,13.10
2022-10-16T19:21:30.641Z,12.63
2022-10-16T19:24:00.905Z,14.63
2022-10-16T19:26:28.110Z,14.30
2022-10-16T19:28:55.423Z,15.70
2022-10-16T19:31:22.628Z,17.17
2022-10-16T19:33:52.960Z,14.93
2022-10-16T19:36:20.746Z,15.50
2022-10-16T19:38:47.139Z,14.88
2022-10-16T19:41:14.999Z,13.35
2022-10-16T19:43:41.355Z,13.48
2022-10-16T19:46:08.895Z,12.15
2022-10-16T19:48:35.235Z,12.05
2022-10-16T19:51:01.835Z,11.75
2022-10-16T19:53:28.690Z,12.63
2022-10-16T19:55:55.295Z,12.18
2022-10-16T19:58:23.217Z,12.82
2022-10-16T20:00:50.003Z,12.85
2022-10-16T20:03:16.631Z,13.60
2022-10-16T20:05:53.216Z,13.57
2022-10-16T20:08:20.042Z,14.23
2022-10-16T20:10:53.410Z,13.18
2022-10-16T20:13:20.244Z,12.63
2022-10-16T20:15:46.903Z,13.45
2022-10-16T20:18:13.565Z,17.52
2022-10-16T20:20:40.536Z,16.60
2022-10-16T20:23:07.145Z,15.85
2022-10-16T20:25:37.193Z,14.80
2022-10-16T20:28:03.766Z,16.90
2022-10-16T20:30:33.531Z,15.80
2022-10-16T20:32:59.789Z,15.73
2022-10-16T20:35:26.135Z,15.40
2022-10-16T20:37:52.487Z,15.18
2022-10-16T20:40:18.823Z,15.52
2022-10-16T20:42:45.081Z,14.45
2022-10-16T20:45:11.410Z,13.80
2022-10-16T20:47:37.750Z,13.98
2022-10-16T20:50:04.374Z,13.90
2022-10-16T20:52:33.966Z,12.65
2022-10-16T20:55:00.249Z,13.23
2022-10-16T20:57:26.788Z,11.45
2022-10-16T20:59:55.573Z,12.48
2022-10-16T21:04:54.514Z,13.38
2022-10-16T21:07:20.785Z,12.23
2022-10-16T21:09:47.079Z,11.73
2022-10-16T21:12:13.345Z,14.45
2022-10-16T21:14:46.418Z,11.88
2022-10-16T21:17:22.788Z,11.25
2022-10-16T21:19:49.390Z,12.10
2022-10-16T21:22:15.702Z,11.77
2022-10-16T21:24:42.008Z,12.27
2022-10-16T21:27:08.306Z,11.10
2022-10-16T21:29:34.731Z,11.52
2022-10-16T21:32:01.049Z,11.93
2022-10-16T21:34:27.550Z,11.45
2022-10-16T21:36:53.821Z,10.15
2022-10-16T21:39:20.602Z,11.02
2022-10-16T21:41:48.587Z,10.25
2022-10-16T21:44:15.237Z,9.95
2022-10-16T21:46:42.571Z,8.88
2022-10-16T21:49:13.871Z,9.95
2022-10-16T21:51:41.602Z,10.68
2022-10-16T21:54:09.689Z,10.30
2022-10-16T21:56:35.981Z,9.32
2022-10-16T21:59:02.278Z,9.95
2022-10-16T22:01:29.348Z,11.35
2022-10-16T22:03:55.724Z,10.07
2022-10-16T22:06:23.388Z,10.75
2022-10-16T22:08:50.649Z,9.68
2022-10-16T22:11:22.826Z,10.80
2022-10-16T22:13:53.947Z,10.85
2022-10-16T22:16:23.443Z,10.40
2022-10-16T22:18:51.673Z,10.30
2022-10-16T22:21:18.109Z,10.30
2022-10-16T22:23:44.429Z,9.43
2022-10-16T22:26:11.321Z,9.75
2022-10-16T22:28:37.912Z,9.50
2022-10-16T22:31:05.930Z,9.05
2022-10-16T22:36:02.644Z,8.70
2022-10-16T22:38:29.866Z,8.50
2022-10-16T22:40:56.194Z,10.32
2022-10-16T22:43:22.491Z,9.70
2022-10-16T22:45:48.825Z,9.23
2022-10-16T22:48:15.521Z,9.10
2022-10-16T22:50:41.794Z,8.93
2022-10-16T22:53:08.080Z,9.18
2022-10-16T22:55:34.405Z,9.15
2022-10-16T22:58:00.665Z,8.90
2022-10-16T23:00:26.960Z,8.93
2022-10-16T23:02:53.266Z,8.73
2022-10-16T23:05:19.561Z,8.57
2022-10-16T23:07:46.424Z,8.77
2022-10-16T23:10:12.746Z,8.82
2022-10-16T23:12:39.101Z,9.68
2022-10-16T23:15:05.653Z,9.50
2022-10-16T23:17:32.000Z,9.98
2022-10-16T23:19:58.277Z,9.07
2022-10-16T23:22:24.658Z,9.35
2022-10-16T23:24:51.109Z,9.23
2022-10-16T23:27:17.373Z,9.38
2022-10-16T23:29:43.662Z,9.55
2022-10-16T23:32:09.949Z,8.23
2022-10-16T23:34:36.242Z,9.48
2022-10-16T23:37:03.661Z,8.45
2022-10-16T23:39:30.040Z,9.20
2022-10-16T23:41:56.330Z,9.25
2022-10-16T23:44:22.593Z,10.18
2022-10-16T23:46:48.870Z,9.20
2022-10-16T23:49:15.195Z,9.13
2022-10-16T23:51:41.488Z,10.60
2022-10-16T23:54:07.764Z,10.57
2022-10-16T23:56:34.058Z,10.20
2022-10-16T23:59:00.325Z,10.10
